createdAt,value
2019-03-02T00:00:48.450Z,102199.23
2019-03-02T00:03:51.610Z,102202.49
2019-03-02T00:06:54.786Z,102201.89
2019-03-02T00:09:58.003Z,102208.54
2019-03-02T00:13:03.971Z,102211.03
2019-03-02T00:16:07.511Z,102215.46
2019-03-02T00:19:07.953Z,102213.87
2019-03-02T00:22:10.977Z,102205.89
2019-03-02T00:25:14.167Z,102212.03
2019-03-02T00:28:17.367Z,102207.88
2019-03-02T00:31:20.558Z,102210.82
2019-03-02T00:34:23.743Z,102206.06
2019-03-02T00:37:29.579Z,102209.00
2019-03-02T00:40:30.415Z,102209.71
2019-03-02T00:43:33.234Z,102218.71
2019-03-02T00:46:36.431Z,102211.82
2019-03-02T00:49:39.620Z,102211.27
2019-03-02T00:52:42.814Z,102204.45
2019-03-02T00:55:46.018Z,102199.07
2019-03-02T00:58:49.191Z,102192.21
2019-03-02T01:01:52.291Z,102199.35
2019-03-02T01:04:57.860Z,102198.13
2019-03-02T01:07:59.783Z,102200.69
2019-03-02T01:11:01.679Z,102206.22
2019-03-02T01:14:04.904Z,102202.50
2019-03-02T01:17:08.063Z,102201.51
2019-03-02T01:20:12.290Z,102202.41
2019-03-02T01:23:15.479Z,102194.58
2019-03-02T01:26:20.538Z,102194.31
2019-03-02T01:29:21.760Z,102186.71
2019-03-02T01:32:24.963Z,102188.39
2019-03-02T01:35:28.071Z,102184.50
2019-03-02T01:38:31.244Z,102181.83
2019-03-02T01:41:34.347Z,102187.32
2019-03-02T01:44:37.535Z,102181.39
2019-03-02T01:47:40.726Z,102178.13
2019-03-02T01:50:47.622Z,102172.19
2019-03-02T01:53:47.134Z,102177.41
2019-03-02T01:56:50.310Z,102169.09
2019-03-02T01:59:53.497Z,102176.12
2019-03-02T02:02:56.699Z,102170.13
2019-03-02T02:05:59.892Z,102176.30
2019-03-02T02:09:05.762Z,102169.90
2019-03-02T02:12:07.202Z,102165.76
2019-03-02T02:15:12.918Z,102161.89
2019-03-02T02:18:16.051Z,102158.17
2019-03-02T02:21:19.247Z,102150.14
2019-03-02T02:24:24.925Z,102152.43
2019-03-02T02:27:25.631Z,102130.68
2019-03-02T02:30:28.745Z,102121.81
2019-03-02T02:33:31.920Z,102119.09
2019-03-02T02:36:35.029Z,102126.36
2019-03-02T02:39:38.103Z,102117.72
2019-03-02T02:42:43.311Z,102110.40
2019-03-02T02:45:49.053Z,102106.84
2019-03-02T02:48:47.684Z,102114.61
2019-03-02T02:51:51.539Z,102113.95
2019-03-02T02:54:57.597Z,102120.59
2019-03-02T02:57:57.881Z,102117.16
2019-03-02T03:01:01.077Z,102119.77
2019-03-02T03:04:04.283Z,102122.98
2019-03-02T03:07:12.508Z,102122.31
2019-03-02T03:10:18.058Z,102114.74
2019-03-02T03:13:21.235Z,102116.05
2019-03-02T03:16:24.426Z,102115.78
2019-03-02T03:19:31.118Z,102119.45
2019-03-02T03:22:31.463Z,102121.48
2019-03-02T03:25:34.627Z,102119.21
2019-03-02T03:28:37.832Z,102122.82
2019-03-02T03:31:41.010Z,102117.84
2019-03-02T03:34:44.201Z,102120.39
2019-03-02T03:37:51.238Z,102121.05
2019-03-02T03:40:50.608Z,102104.96
2019-03-02T03:43:53.795Z,102107.74
2019-03-02T03:47:00.765Z,102115.78
2019-03-02T03:50:00.226Z,102117.71
2019-03-02T03:53:03.256Z,102122.65
2019-03-02T03:56:06.361Z,102122.33
2019-03-02T03:59:14.063Z,102125.93
2019-03-02T04:02:12.756Z,102123.65
2019-03-02T04:05:15.962Z,102120.98
2019-03-02T04:08:19.132Z,102117.66
2019-03-02T04:11:22.248Z,102121.44
2019-03-02T04:14:25.419Z,102119.11
2019-03-02T04:17:28.513Z,102124.49
2019-03-02T04:20:35.299Z,102122.75
2019-03-02T04:23:38.488Z,102118.45
2019-03-02T04:26:41.671Z,102120.61
2019-03-02T04:29:50.213Z,102124.41
2019-03-02T04:32:47.967Z,102123.26
2019-03-02T04:35:51.172Z,102128.58
2019-03-02T04:38:54.361Z,102129.53
2019-03-02T04:41:57.555Z,102122.75
2019-03-02T04:45:01.716Z,102126.37
2019-03-02T04:48:04.720Z,102125.81
2019-03-02T04:51:07.047Z,102127.74
2019-03-02T04:54:10.134Z,102123.08
2019-03-02T04:57:13.375Z,102121.55
2019-03-02T05:00:16.629Z,102122.25
2019-03-02T05:03:19.837Z,102113.61
2019-03-02T05:06:23.007Z,102109.12
2019-03-02T05:09:26.211Z,102110.62
2019-03-02T05:12:29.326Z,102099.43
2019-03-02T05:15:32.480Z,102107.80
2019-03-02T05:18:35.684Z,102108.14
2019-03-02T05:21:39.809Z,102105.14
2019-03-02T05:24:43.573Z,102098.65
2019-03-02T05:27:45.262Z,102097.16
2019-03-02T05:30:48.358Z,102095.72
2019-03-02T05:33:51.558Z,102096.88
2019-03-02T05:36:54.731Z,102092.22
2019-03-02T05:39:57.827Z,102092.83
2019-03-02T05:43:01.015Z,102092.35
2019-03-02T05:46:04.116Z,102093.39
2019-03-02T05:49:07.315Z,102084.98
2019-03-02T05:52:10.507Z,102092.63
2019-03-02T05:55:18.017Z,102091.85
2019-03-02T05:58:17.167Z,102099.32
2019-03-02T06:01:20.091Z,102092.23
2019-03-02T06:04:23.287Z,102088.91
2019-03-02T06:07:26.491Z,102085.93
2019-03-02T06:10:29.672Z,102076.21
2019-03-02T06:13:32.778Z,102080.93
2019-03-02T06:16:35.967Z,102082.76
2019-03-02T06:19:39.067Z,102078.06
2019-03-02T06:22:42.286Z,102073.96
2019-03-02T06:25:45.540Z,102073.44
2019-03-02T06:28:48.762Z,102071.68
2019-03-02T06:31:53.959Z,102071.08
2019-03-02T06:34:57.068Z,102074.57
2019-03-02T06:37:59.351Z,102066.08
2019-03-02T06:41:02.564Z,102072.13
2019-03-02T06:44:05.743Z,102074.57
2019-03-02T06:47:08.975Z,102071.03
2019-03-02T06:50:12.553Z,102076.67
2019-03-02T06:53:15.831Z,102069.14
2019-03-02T06:56:19.098Z,102068.57
2019-03-02T06:59:22.375Z,102077.55
2019-03-02T07:02:25.524Z,102078.72
2019-03-02T07:05:29.832Z,102070.80
2019-03-02T07:08:32.762Z,102076.66
2019-03-02T07:11:35.152Z,102073.02
2019-03-02T07:14:38.400Z,102072.35
2019-03-02T07:17:50.836Z,102067.81
2019-03-02T07:20:54.111Z,102064.48
2019-03-02T07:23:57.316Z,102063.00
2019-03-02T07:27:00.966Z,102059.29
2019-03-02T07:30:04.620Z,102063.32
2019-03-02T07:33:07.918Z,102064.65
2019-03-02T07:36:10.918Z,102060.21
2019-03-02T07:39:14.057Z,102065.60
2019-03-02T07:42:17.310Z,102065.25
2019-03-02T07:45:20.508Z,102068.63
2019-03-02T07:48:23.683Z,102069.29
2019-03-02T07:51:26.889Z,102072.73
2019-03-02T07:54:30.111Z,102072.45
2019-03-02T07:57:33.273Z,102072.22
2019-03-02T08:00:37.881Z,102067.56
2019-03-02T08:03:39.682Z,102064.57
2019-03-02T08:06:42.872Z,102062.62
2019-03-02T08:09:46.043Z,102064.74
2019-03-02T08:12:49.263Z,102067.21
2019-03-02T08:15:52.472Z,102062.96
2019-03-02T08:18:55.747Z,102060.18
2019-03-02T08:21:58.939Z,102058.78
2019-03-02T08:25:02.138Z,102057.16
2019-03-02T08:28:06.776Z,102055.44
2019-03-02T08:31:08.993Z,102059.49
2019-03-02T08:34:11.715Z,102058.75
2019-03-02T08:37:16.534Z,102055.27
2019-03-02T08:40:19.265Z,102054.25
2019-03-02T08:43:21.205Z,102048.59
2019-03-02T08:46:24.391Z,102050.60
2019-03-02T08:49:27.677Z,102044.81
2019-03-02T08:52:31.908Z,102044.19
2019-03-02T08:55:35.135Z,102041.25
2019-03-02T08:58:38.288Z,102033.04
2019-03-02T09:01:41.587Z,102036.21
2019-03-02T09:04:47.244Z,102035.25
2019-03-02T09:07:48.079Z,102032.05
2019-03-02T09:10:51.284Z,102031.01
2019-03-02T09:13:54.503Z,102032.71
2019-03-02T09:16:57.662Z,102030.07
2019-03-02T09:20:01.005Z,102037.99
2019-03-02T09:23:04.043Z,102031.56
2019-03-02T09:26:07.352Z,102029.46
2019-03-02T09:29:10.549Z,102023.98
2019-03-02T09:32:14.158Z,102025.63
2019-03-02T09:35:17.257Z,102027.49
2019-03-02T09:38:20.959Z,102033.14
2019-03-02T09:41:25.361Z,102028.95
2019-03-02T09:44:26.467Z,102022.81
2019-03-02T09:47:29.721Z,102024.67
2019-03-02T09:50:32.907Z,102025.36
2019-03-02T09:53:36.117Z,102023.29
2019-03-02T09:56:39.287Z,102026.23
2019-03-02T09:59:45.440Z,102028.76
2019-03-02T10:02:46.420Z,102031.44
2019-03-02T10:05:49.868Z,102025.55
2019-03-02T10:08:51.849Z,102021.98
2019-03-02T10:11:55.146Z,102028.57
2019-03-02T10:15:00.769Z,102030.31
2019-03-02T10:18:01.556Z,102030.11
2019-03-02T10:21:04.839Z,102025.48
2019-03-02T10:24:08.059Z,102027.35
2019-03-02T10:27:11.251Z,102022.19
2019-03-02T10:30:16.141Z,102022.54
2019-03-02T10:33:19.255Z,102025.22
2019-03-02T10:36:25.780Z,102028.51
2019-03-02T10:39:29.082Z,102020.69
2019-03-02T10:42:31.903Z,102020.22
2019-03-02T10:45:33.664Z,102018.62
2019-03-02T10:48:35.320Z,102011.58
2019-03-02T10:51:38.731Z,102017.89
2019-03-02T10:54:41.931Z,102018.78
2019-03-02T10:57:45.137Z,102016.58
2019-03-02T11:00:48.308Z,102010.88
2019-03-02T11:03:51.622Z,102003.36
2019-03-02T11:07:00.988Z,102007.52
2019-03-02T11:10:12.867Z,102008.39
2019-03-02T11:13:51.866Z,102007.74
2019-03-02T11:16:58.470Z,102012.99
2019-03-02T11:20:07.115Z,102012.78
2019-03-02T11:23:19.974Z,102009.95
2019-03-02T11:26:26.561Z,101999.56
2019-03-02T11:29:50.959Z,101990.72
2019-03-02T11:32:56.969Z,101982.18
2019-03-02T11:36:41.043Z,101979.73
2019-03-02T11:40:50.382Z,101981.91
2019-03-02T11:43:59.556Z,101972.68
2019-03-02T11:47:06.939Z,101961.26
2019-03-02T11:50:16.099Z,101967.09
2019-03-02T11:53:24.181Z,101968.11
2019-03-02T11:56:30.743Z,101964.32
2019-03-02T11:59:42.119Z,101968.88
2019-03-02T12:02:50.052Z,101962.99
2019-03-02T12:06:05.768Z,101967.69
2019-03-02T12:09:10.116Z,101955.46
2019-03-02T12:12:51.249Z,101954.56
2019-03-02T12:15:56.276Z,101953.71
2019-03-02T12:19:05.375Z,101951.45
2019-03-02T12:23:16.046Z,101946.02
2019-03-02T12:26:30.323Z,101948.71
2019-03-02T12:29:37.638Z,101943.40
2019-03-02T12:32:54.679Z,101941.22
2019-03-02T12:36:06.257Z,101941.42
2019-03-02T12:39:13.619Z,101937.32
2019-03-02T12:42:20.918Z,101925.87
2019-03-02T12:47:36.002Z,101921.11
2019-03-02T12:50:43.296Z,101919.07
2019-03-02T12:54:04.395Z,101917.34
2019-03-02T12:57:08.710Z,101911.64
2019-03-02T13:00:22.337Z,101913.40
2019-03-02T13:03:41.701Z,101905.36
2019-03-02T13:08:53.149Z,101897.11
2019-03-02T13:12:05.789Z,101900.12
2019-03-02T13:15:11.252Z,101896.03
2019-03-02T13:18:33.821Z,101888.47
2019-03-02T13:21:43.007Z,101881.14
2019-03-02T13:24:53.724Z,101873.94
2019-03-02T13:28:02.275Z,101867.29
2019-03-02T13:32:11.056Z,101870.98
2019-03-02T13:35:23.427Z,101871.50
2019-03-02T13:38:29.985Z,101867.24
2019-03-02T13:42:36.909Z,101870.00
2019-03-02T13:45:47.163Z,101869.35
2019-03-02T13:49:01.668Z,101874.74
2019-03-02T13:52:40.315Z,101870.09
2019-03-02T13:55:49.469Z,101862.35
2019-03-02T13:58:58.515Z,101855.94
2019-03-02T14:02:07.164Z,101860.17
2019-03-02T14:06:19.715Z,101854.48
2019-03-02T14:09:35.123Z,101849.13
2019-03-02T14:12:44.429Z,101847.83
2019-03-02T14:16:24.229Z,101847.50
2019-03-02T14:19:32.659Z,101841.64
2019-03-02T14:22:49.015Z,101846.39
2019-03-02T14:26:04.410Z,101848.44
2019-03-02T14:29:12.252Z,101847.47
2019-03-02T14:32:19.026Z,101835.29
2019-03-02T14:35:28.243Z,101823.20
2019-03-02T14:38:37.580Z,101825.19
2019-03-02T14:41:48.861Z,101829.64
2019-03-02T14:45:09.720Z,101828.70
2019-03-02T14:49:17.586Z,101829.13
2019-03-02T14:52:33.246Z,101829.27
2019-03-02T14:55:50.232Z,101829.33
2019-03-02T14:59:28.924Z,101829.25
2019-03-02T15:03:09.781Z,101830.51
2019-03-02T15:06:18.226Z,101828.89
2019-03-02T15:09:25.625Z,101826.42
2019-03-02T15:12:33.099Z,101826.67
2019-03-02T15:15:44.567Z,101826.23
2019-03-02T15:19:02.326Z,101821.51
2019-03-02T15:22:08.267Z,101820.34
2019-03-02T15:25:26.104Z,101820.08
2019-03-02T15:28:33.995Z,101816.66
2019-03-02T15:31:43.187Z,101818.05
2019-03-02T15:34:50.099Z,101818.66
2019-03-02T15:38:04.609Z,101820.16
2019-03-02T15:41:09.191Z,101819.10
2019-03-02T15:44:19.707Z,101818.59
2019-03-02T15:47:30.980Z,101821.70
2019-03-02T15:50:40.323Z,101821.93
2019-03-02T15:53:56.534Z,101822.14
2019-03-02T15:57:11.781Z,101815.41
2019-03-02T16:00:21.435Z,101815.01
2019-03-02T16:04:31.912Z,101813.17
2019-03-02T16:07:54.348Z,101810.78
2019-03-02T16:11:02.214Z,101810.91
2019-03-02T16:14:11.710Z,101804.16
2019-03-02T16:17:20.041Z,101808.58
2019-03-02T16:20:28.617Z,101808.82
2019-03-02T16:25:41.041Z,101808.78
2019-03-02T16:28:48.058Z,101809.29
2019-03-02T16:31:59.480Z,101803.64
2019-03-02T16:35:40.423Z,101808.24
2019-03-02T16:38:56.559Z,101804.85
2019-03-02T16:42:12.642Z,101799.41
2019-03-02T16:45:20.461Z,101800.69
2019-03-02T16:48:29.003Z,101809.36
2019-03-02T16:51:37.108Z,101806.83
2019-03-02T16:54:52.366Z,101810.92
2019-03-02T16:58:00.499Z,101812.73
2019-03-02T17:01:08.674Z,101822.24
2019-03-02T17:06:21.164Z,101816.69
2019-03-02T17:09:59.984Z,101818.27
2019-03-02T17:13:15.450Z,101820.39
2019-03-02T17:16:24.074Z,101821.98
2019-03-02T17:19:33.548Z,101819.05
2019-03-02T17:22:41.799Z,101820.38
2019-03-02T17:25:51.192Z,101819.38
2019-03-02T17:29:03.630Z,101811.72
2019-03-02T17:32:13.920Z,101825.43
2019-03-02T17:35:35.601Z,101836.34
2019-03-02T17:38:47.979Z,101845.52
2019-03-02T17:41:56.154Z,101850.64
2019-03-02T17:45:03.284Z,101858.68
2019-03-02T17:48:11.411Z,101868.15
2019-03-02T17:51:21.854Z,101876.24
2019-03-02T17:56:37.152Z,101882.02
2019-03-02T17:59:43.216Z,101894.30
2019-03-02T18:02:55.947Z,101892.25
2019-03-02T18:06:08.347Z,101900.38
2019-03-02T18:09:16.928Z,101906.50
2019-03-02T18:13:02.342Z,101907.02
2019-03-02T18:16:22.428Z,101916.79
2019-03-02T18:19:25.649Z,101908.68
2019-03-02T18:22:28.761Z,101918.82
2019-03-02T18:25:31.952Z,101922.38
2019-03-02T18:28:35.159Z,101923.30
2019-03-02T18:31:38.257Z,101928.72
2019-03-02T18:34:41.418Z,101928.11
2019-03-02T18:37:44.644Z,101931.13
2019-03-02T18:40:47.739Z,101933.64
2019-03-02T18:43:51.032Z,101931.74
2019-03-02T18:46:54.239Z,101937.61
2019-03-02T18:50:06.627Z,101940.21
2019-03-02T18:53:09.925Z,101942.52
2019-03-02T18:56:13.135Z,101941.51
2019-03-02T18:59:16.295Z,101945.42
2019-03-02T19:02:19.495Z,101948.93
2019-03-02T19:05:30.003Z,101952.13
2019-03-02T19:08:33.412Z,101943.63
2019-03-02T19:11:36.559Z,101949.85
2019-03-02T19:14:39.749Z,101953.86
2019-03-02T19:17:43.241Z,101953.86
2019-03-02T19:20:46.354Z,101950.37
2019-03-02T19:23:49.610Z,101954.08
2019-03-02T19:26:52.738Z,101954.58
2019-03-02T19:29:55.922Z,101955.53
2019-03-02T19:32:59.391Z,101954.53
2019-03-02T19:36:02.511Z,101956.75
2019-03-02T19:39:13.803Z,101957.13
2019-03-02T19:42:16.950Z,101964.04
2019-03-02T19:45:20.290Z,101968.11
2019-03-02T19:48:23.475Z,101964.55
2019-03-02T19:51:26.678Z,101961.39
2019-03-02T19:54:29.899Z,101962.90
2019-03-02T19:57:33.915Z,101966.58
2019-03-02T20:00:37.971Z,101963.74
2019-03-02T20:03:41.227Z,101970.48
2019-03-02T20:06:44.404Z,101967.35
2019-03-02T20:09:47.596Z,101971.42
2019-03-02T20:12:50.806Z,101965.66
2019-03-02T20:15:54.039Z,101966.16
2019-03-02T20:18:58.397Z,101965.44
2019-03-02T20:22:00.439Z,101966.54
2019-03-02T20:25:03.878Z,101967.10
2019-03-02T20:28:07.167Z,101962.78
2019-03-02T20:31:10.302Z,101970.95
2019-03-02T20:34:13.583Z,101978.44
2019-03-02T20:37:16.863Z,101978.52
2019-03-02T20:40:20.673Z,101983.25
2019-03-02T20:43:23.897Z,101980.89
2019-03-02T20:46:27.059Z,101986.37
2019-03-02T20:49:30.251Z,101981.92
2019-03-02T20:52:33.452Z,101982.20
2019-03-02T20:55:36.643Z,101976.94
2019-03-02T20:58:39.827Z,101985.48
2019-03-02T21:01:42.960Z,101986.04
2019-03-02T21:04:46.122Z,101985.99
2019-03-02T21:07:49.216Z,101994.09
2019-03-02T21:10:52.324Z,101995.64
2019-03-02T21:13:55.519Z,102001.71
2019-03-02T21:16:58.700Z,102001.20
2019-03-02T21:20:01.912Z,102007.74
2019-03-02T21:23:05.199Z,102006.03
2019-03-02T21:26:08.379Z,102006.72
2019-03-02T21:29:11.468Z,102009.49
2019-03-02T21:32:14.663Z,102016.93
2019-03-02T21:35:17.867Z,102018.17
2019-03-02T21:38:21.050Z,102019.72
2019-03-02T21:41:24.166Z,102019.50
2019-03-02T21:44:27.347Z,102015.56
2019-03-02T21:47:30.443Z,102018.17
2019-03-02T21:50:33.857Z,102014.02
2019-03-02T21:53:37.017Z,102016.02
2019-03-02T21:56:40.107Z,102014.52
2019-03-02T21:59:43.200Z,102006.53
2019-03-02T22:02:46.399Z,102000.85
2019-03-02T22:05:49.499Z,101988.29
2019-03-02T22:08:52.691Z,101990.43
2019-03-02T22:11:55.902Z,101986.56
2019-03-02T22:14:59.076Z,101985.10
2019-03-02T22:18:02.329Z,101981.99
2019-03-02T22:21:05.575Z,101985.22
2019-03-02T22:24:08.763Z,101983.45
2019-03-02T22:27:11.958Z,101984.44
2019-03-02T22:30:18.504Z,101987.26
2019-03-02T22:33:21.627Z,101990.82
2019-03-02T22:36:24.729Z,101993.85
2019-03-02T22:39:27.935Z,101995.95
2019-03-02T22:42:31.011Z,101995.60
2019-03-02T22:45:34.219Z,101997.71
2019-03-02T22:48:37.418Z,102002.35
2019-03-02T22:51:40.507Z,102003.57
2019-03-02T22:54:43.672Z,102004.23
2019-03-02T22:57:48.535Z,102003.86
2019-03-02T23:01:33.275Z,101999.40
2019-03-02T23:04:36.391Z,102003.29
2019-03-02T23:07:39.576Z,102001.05
2019-03-02T23:10:42.824Z,101997.25
2019-03-02T23:13:45.969Z,101995.71
2019-03-02T23:16:49.159Z,101992.74
2019-03-02T23:19:52.357Z,101990.50
2019-03-02T23:22:55.563Z,101985.76
2019-03-02T23:25:58.734Z,101990.29
2019-03-02T23:29:01.953Z,101991.17
2019-03-02T23:32:05.133Z,101987.10
2019-03-02T23:35:08.334Z,101984.06
2019-03-02T23:38:12.336Z,101979.60
2019-03-02T23:41:15.511Z,101977.39
2019-03-02T23:44:18.611Z,101967.16
2019-03-02T23:47:21.724Z,101965.24
2019-03-02T23:50:24.898Z,101964.18
2019-03-02T23:53:28.110Z,101957.37
2019-03-02T23:56:31.186Z,101956.87
2019-03-02T23:59:34.297Z,101949.37
